createdAt,value
2018-01-06T00:00:37.941Z,53.00
2018-01-06T00:03:05.133Z,52.90
2018-01-06T00:05:32.354Z,52.90
2018-01-06T00:08:00.461Z,52.80
2018-01-06T00:10:28.266Z,52.60
2018-01-06T00:12:56.349Z,52.80
2018-01-06T00:15:24.423Z,52.80
2018-01-06T00:17:51.599Z,53.50
2018-01-06T00:20:19.630Z,53.20
2018-01-06T00:22:48.539Z,52.80
2018-01-06T00:25:16.627Z,53.40
2018-01-06T00:27:43.839Z,52.60
2018-01-06T00:30:11.809Z,52.60
2018-01-06T00:32:40.718Z,52.60
2018-01-06T00:35:08.841Z,52.60
2018-01-06T00:37:36.014Z,53.20
2018-01-06T00:40:04.001Z,52.80
2018-01-06T00:42:31.936Z,53.00
2018-01-06T00:44:59.109Z,53.00
2018-01-06T00:47:27.821Z,52.70
2018-01-06T00:49:54.991Z,52.70
2018-01-06T00:52:22.161Z,52.60
2018-01-06T00:54:49.334Z,53.20
2018-01-06T00:57:16.540Z,52.90
2018-01-06T00:59:43.715Z,52.80
2018-01-06T01:02:11.693Z,52.70
2018-01-06T01:04:38.866Z,52.60
2018-01-06T01:07:06.039Z,52.60
2018-01-06T01:09:34.005Z,52.90
2018-01-06T01:12:01.938Z,52.90
2018-01-06T01:14:29.102Z,52.90
2018-01-06T01:16:56.276Z,52.60
2018-01-06T01:19:24.204Z,52.80
2018-01-06T01:21:51.374Z,52.70
2018-01-06T01:24:20.052Z,52.40
2018-01-06T01:26:47.224Z,52.40
2018-01-06T01:29:15.181Z,52.90
2018-01-06T01:31:42.345Z,52.90
2018-01-06T01:34:10.281Z,52.70
2018-01-06T01:36:37.453Z,52.60
2018-01-06T01:39:04.630Z,52.60
2018-01-06T01:41:32.569Z,53.20
2018-01-06T01:43:59.768Z,53.10
2018-01-06T01:46:26.933Z,52.80
2018-01-06T01:48:54.105Z,52.30
2018-01-06T01:51:21.305Z,52.20
2018-01-06T01:53:50.141Z,52.30
2018-01-06T01:56:17.354Z,52.20
2018-01-06T01:58:46.219Z,52.50
2018-01-06T02:01:14.293Z,52.50
2018-01-06T02:03:41.457Z,53.70
2018-01-06T02:06:09.393Z,52.70
2018-01-06T02:08:38.139Z,52.70
2018-01-06T02:11:06.166Z,52.70
2018-01-06T02:13:34.264Z,52.60
2018-01-06T02:16:02.199Z,52.50
2018-01-06T02:18:29.365Z,52.50
2018-01-06T02:20:57.425Z,52.70
2018-01-06T02:23:24.636Z,53.20
2018-01-06T02:25:51.845Z,53.30
2018-01-06T02:28:19.023Z,53.00
2018-01-06T02:30:46.197Z,53.50
2018-01-06T02:33:14.329Z,52.30
2018-01-06T02:35:43.172Z,52.40
2018-01-06T02:38:10.345Z,52.30
2018-01-06T02:40:37.513Z,52.40
2018-01-06T02:43:04.681Z,53.00
2018-01-06T02:45:32.617Z,52.60
2018-01-06T02:48:00.706Z,52.60
2018-01-06T02:50:28.829Z,52.10
2018-01-06T02:52:56.922Z,52.30
2018-01-06T02:55:24.762Z,52.30
2018-01-06T02:57:51.969Z,52.30
2018-01-06T03:00:19.802Z,53.00
2018-01-06T03:02:47.784Z,53.50
2018-01-06T03:05:15.401Z,52.50
2018-01-06T03:07:43.390Z,52.30
2018-01-06T03:10:10.557Z,52.20
2018-01-06T03:12:38.699Z,52.20
2018-01-06T03:15:05.915Z,52.20
2018-01-06T03:17:33.081Z,52.70
2018-01-06T03:20:01.016Z,52.80
2018-01-06T03:22:29.121Z,52.80
2018-01-06T03:24:57.977Z,52.20
2018-01-06T03:27:25.149Z,52.20
2018-01-06T03:29:52.317Z,52.10
2018-01-06T03:32:21.205Z,52.40
2018-01-06T03:34:49.310Z,52.40
2018-01-06T03:37:17.393Z,52.70
2018-01-06T03:39:44.594Z,52.50
2018-01-06T03:42:12.537Z,52.20
2018-01-06T03:44:39.704Z,52.30
2018-01-06T03:47:06.865Z,52.10
2018-01-06T03:49:34.989Z,52.50
2018-01-06T03:52:02.156Z,52.60
2018-01-06T03:54:30.168Z,52.40
2018-01-06T03:56:58.288Z,52.50
2018-01-06T03:59:26.410Z,52.30
2018-01-06T04:01:54.557Z,52.40
2018-01-06T04:04:22.573Z,52.50
2018-01-06T04:06:52.345Z,52.50
2018-01-06T04:09:21.169Z,52.70
2018-01-06T04:11:49.140Z,52.40
2018-01-06T04:14:17.082Z,52.20
2018-01-06T04:16:44.288Z,52.20
2018-01-06T04:19:11.460Z,53.00
2018-01-06T04:21:39.520Z,52.40
2018-01-06T04:24:07.638Z,52.50
2018-01-06T04:26:34.809Z,52.40
2018-01-06T04:29:02.756Z,53.00
2018-01-06T04:31:29.962Z,53.00
2018-01-06T04:33:57.136Z,53.00
2018-01-06T04:36:24.335Z,52.80
2018-01-06T04:38:53.093Z,52.50
2018-01-06T04:41:20.257Z,52.50
2018-01-06T04:43:47.416Z,52.60
2018-01-06T04:46:14.585Z,52.80
2018-01-06T04:48:42.533Z,53.50
2018-01-06T04:51:09.701Z,53.50
2018-01-06T04:53:37.641Z,53.00
2018-01-06T04:56:04.813Z,53.00
2018-01-06T04:58:32.019Z,52.80
2018-01-06T05:00:59.184Z,53.20
2018-01-06T05:03:26.344Z,52.80
2018-01-06T05:05:53.552Z,53.00
2018-01-06T05:08:20.731Z,53.40
2018-01-06T05:10:47.901Z,54.10
2018-01-06T05:13:15.066Z,53.00
2018-01-06T05:15:43.137Z,53.00
2018-01-06T05:18:10.308Z,53.00
2018-01-06T05:20:38.280Z,53.20
2018-01-06T05:23:07.180Z,53.80
2018-01-06T05:25:34.467Z,53.80
2018-01-06T05:28:01.642Z,53.30
2018-01-06T05:30:28.817Z,53.40
2018-01-06T05:32:56.758Z,53.20
2018-01-06T05:35:23.962Z,53.20
2018-01-06T05:37:51.893Z,53.00
2018-01-06T05:40:19.062Z,53.00
2018-01-06T05:42:47.005Z,53.80
2018-01-06T05:45:15.141Z,53.40
2018-01-06T05:47:43.225Z,53.20
2018-01-06T05:50:11.170Z,53.10
2018-01-06T05:52:38.350Z,53.00
2018-01-06T05:55:05.517Z,52.80
2018-01-06T05:57:33.513Z,53.20
2018-01-06T06:00:01.526Z,53.40
2018-01-06T06:02:29.585Z,53.10
2018-01-06T06:04:58.406Z,52.40
2018-01-06T06:07:26.528Z,52.30
2018-01-06T06:09:54.468Z,52.10
2018-01-06T06:12:21.641Z,52.10
2018-01-06T06:14:48.802Z,52.10
2018-01-06T06:17:16.741Z,52.50
2018-01-06T06:19:44.833Z,52.50
2018-01-06T06:22:12.961Z,52.10
2018-01-06T06:24:40.134Z,52.10
2018-01-06T06:27:08.062Z,52.30
2018-01-06T06:29:36.038Z,52.30
2018-01-06T06:32:03.209Z,52.00
2018-01-06T06:34:31.271Z,52.10
2018-01-06T06:36:58.441Z,52.70
2018-01-06T06:39:25.609Z,52.70
2018-01-06T06:41:52.773Z,52.10
2018-01-06T06:44:20.856Z,52.00
2018-01-06T06:46:48.963Z,52.10
2018-01-06T06:49:16.494Z,52.10
2018-01-06T06:51:44.434Z,53.20
2018-01-06T06:54:11.601Z,53.20
2018-01-06T06:56:38.765Z,53.60
2018-01-06T06:59:06.737Z,54.10
2018-01-06T07:01:35.568Z,54.80
2018-01-06T07:04:02.770Z,54.80
2018-01-06T07:06:29.936Z,60.20
2018-01-06T07:08:58.785Z,58.20
2018-01-06T07:11:25.998Z,58.20
2018-01-06T07:13:53.161Z,59.20
2018-01-06T07:16:21.365Z,59.30
2018-01-06T07:18:48.536Z,59.60
2018-01-06T07:21:15.701Z,60.10
2018-01-06T07:23:44.547Z,59.90
2018-01-06T07:26:12.677Z,59.80
2018-01-06T07:28:40.641Z,60.40
2018-01-06T07:31:08.710Z,60.40
2018-01-06T07:33:36.701Z,61.40
2018-01-06T07:36:03.905Z,61.30
2018-01-06T07:38:31.107Z,61.30
2018-01-06T07:40:58.288Z,60.70
2018-01-06T07:43:25.489Z,60.40
2018-01-06T07:45:53.457Z,59.00
2018-01-06T07:48:22.174Z,58.20
2018-01-06T07:50:49.384Z,58.20
2018-01-06T07:53:16.549Z,58.20
2018-01-06T07:55:44.509Z,57.10
2018-01-06T07:58:11.669Z,57.00
2018-01-06T08:00:38.833Z,57.30
2018-01-06T08:03:08.265Z,57.10
2018-01-06T08:05:36.186Z,57.00
2018-01-06T08:08:03.434Z,57.90
2018-01-06T08:10:30.596Z,59.60
2018-01-06T08:12:57.804Z,60.10
2018-01-06T08:15:24.977Z,61.10
2018-01-06T08:17:52.196Z,61.70
2018-01-06T08:20:20.385Z,61.90
2018-01-06T08:22:48.493Z,61.70
2018-01-06T08:25:15.813Z,62.00
2018-01-06T08:27:43.941Z,61.40
2018-01-06T08:30:12.805Z,61.60
2018-01-06T08:32:40.021Z,61.50
2018-01-06T08:35:07.189Z,61.80
2018-01-06T08:37:34.352Z,62.10
2018-01-06T08:40:01.651Z,61.30
2018-01-06T08:42:28.835Z,60.40
2018-01-06T08:44:56.776Z,60.40
2018-01-06T08:47:24.844Z,60.00
2018-01-06T08:49:52.792Z,58.80
2018-01-06T08:52:19.965Z,58.80
2018-01-06T08:54:47.911Z,60.00
2018-01-06T08:57:15.077Z,60.00
2018-01-06T08:59:43.921Z,61.30
2018-01-06T09:02:11.125Z,62.00
2018-01-06T09:04:39.061Z,61.40
2018-01-06T09:07:06.220Z,61.40
2018-01-06T09:09:33.387Z,62.30
2018-01-06T09:12:01.407Z,61.90
2018-01-06T09:14:28.571Z,61.80
2018-01-06T09:16:55.733Z,62.20
2018-01-06T09:19:22.897Z,62.30
2018-01-06T09:21:50.062Z,62.20
2018-01-06T09:24:18.761Z,61.70
2018-01-06T09:26:46.689Z,60.90
2018-01-06T09:29:14.438Z,60.80
2018-01-06T09:31:41.689Z,62.40
2018-01-06T09:34:08.856Z,61.80
2018-01-06T09:36:36.786Z,62.30
2018-01-06T09:39:04.717Z,60.50
2018-01-06T09:41:31.880Z,60.40
2018-01-06T09:43:59.041Z,60.00
2018-01-06T09:46:26.253Z,60.70
2018-01-06T09:48:53.467Z,60.20
2018-01-06T09:51:21.436Z,59.40
2018-01-06T09:53:49.413Z,59.80
2018-01-06T09:56:16.572Z,59.80
2018-01-06T09:58:44.676Z,60.10
2018-01-06T10:01:11.847Z,60.50
2018-01-06T10:03:39.017Z,60.00
2018-01-06T10:06:07.729Z,60.00
2018-01-06T10:08:35.666Z,60.70
2018-01-06T10:11:03.655Z,60.60
2018-01-06T10:13:31.593Z,61.00
2018-01-06T10:15:58.768Z,60.90
2018-01-06T10:18:26.709Z,60.40
2018-01-06T10:20:54.645Z,61.00
2018-01-06T10:23:21.811Z,60.90
2018-01-06T10:25:48.989Z,61.00
2018-01-06T10:28:16.161Z,60.80
2018-01-06T10:30:44.096Z,58.70
2018-01-06T10:33:13.201Z,58.70
2018-01-06T10:35:41.169Z,59.60
2018-01-06T10:38:09.141Z,59.50
2018-01-06T10:40:36.309Z,59.70
2018-01-06T10:43:03.469Z,59.70
2018-01-06T10:45:31.412Z,58.30
2018-01-06T10:47:59.341Z,58.40
2018-01-06T10:50:27.414Z,58.40
2018-01-06T10:52:54.581Z,59.20
2018-01-06T10:55:22.553Z,59.40
2018-01-06T10:57:50.649Z,60.00
2018-01-06T11:00:18.794Z,60.30
2018-01-06T11:02:46.963Z,58.40
2018-01-06T11:05:14.677Z,58.70
2018-01-06T11:07:42.755Z,59.90
2018-01-06T11:10:09.923Z,60.20
2018-01-06T11:12:37.858Z,60.40
2018-01-06T11:15:05.817Z,60.40
2018-01-06T11:17:34.033Z,60.30
2018-01-06T11:20:02.876Z,60.30
2018-01-06T11:22:30.041Z,60.30
2018-01-06T11:24:57.223Z,61.00
2018-01-06T11:27:25.206Z,61.40
2018-01-06T11:29:53.142Z,61.00
2018-01-06T11:32:20.314Z,61.60
2018-01-06T11:34:49.066Z,61.30
2018-01-06T11:37:16.294Z,61.30
2018-01-06T11:39:43.540Z,61.10
2018-01-06T11:42:10.714Z,61.60
2018-01-06T11:44:38.806Z,60.80
2018-01-06T11:47:06.891Z,61.50
2018-01-06T11:49:34.909Z,61.50
2018-01-06T11:52:02.079Z,59.60
2018-01-06T11:54:29.281Z,59.60
2018-01-06T11:56:57.248Z,59.30
2018-01-06T11:59:24.416Z,59.20
2018-01-06T12:01:53.282Z,60.30
2018-01-06T12:04:20.446Z,60.30
2018-01-06T12:06:48.393Z,60.90
2018-01-06T12:09:15.562Z,60.90
2018-01-06T12:11:42.773Z,60.70
2018-01-06T12:14:09.945Z,60.60
2018-01-06T12:16:37.134Z,61.30
2018-01-06T12:19:04.316Z,60.10
2018-01-06T12:21:31.529Z,60.80
2018-01-06T12:23:59.485Z,60.90
2018-01-06T12:26:26.650Z,60.90
2018-01-06T12:28:54.633Z,61.00
2018-01-06T12:31:22.577Z,61.50
2018-01-06T12:33:49.752Z,61.50
2018-01-06T12:36:17.685Z,61.80
2018-01-06T12:38:46.386Z,62.40
2018-01-06T12:41:13.558Z,62.00
2018-01-06T12:43:41.493Z,61.80
2018-01-06T12:46:09.445Z,61.50
2018-01-06T12:48:36.652Z,61.50
2018-01-06T12:51:04.597Z,61.80
2018-01-06T12:53:32.228Z,61.80
2018-01-06T12:55:59.478Z,61.90
2018-01-06T12:58:27.550Z,61.90
2018-01-06T13:00:54.720Z,62.00
2018-01-06T13:03:21.885Z,62.10
2018-01-06T13:05:49.048Z,62.40
2018-01-06T13:08:17.106Z,62.30
2018-01-06T13:10:44.318Z,62.20
2018-01-06T13:13:11.490Z,62.20
2018-01-06T13:15:38.721Z,62.00
2018-01-06T13:18:06.808Z,61.60
2018-01-06T13:20:33.994Z,62.10
2018-01-06T13:23:01.177Z,61.70
2018-01-06T13:25:29.109Z,60.60
2018-01-06T13:27:56.287Z,60.60
2018-01-06T13:30:24.269Z,59.60
2018-01-06T13:32:51.450Z,59.60
2018-01-06T13:35:18.627Z,59.60
2018-01-06T13:37:45.855Z,59.60
2018-01-06T13:40:13.178Z,60.00
2018-01-06T13:42:42.103Z,59.30
2018-01-06T13:45:10.323Z,59.40
2018-01-06T13:47:37.562Z,59.30
2018-01-06T13:50:04.731Z,59.00
2018-01-06T13:52:31.902Z,59.10
2018-01-06T13:54:59.069Z,59.70
2018-01-06T13:57:26.241Z,59.80
2018-01-06T13:59:53.705Z,62.40
2018-01-06T14:02:20.877Z,61.20
2018-01-06T14:04:48.050Z,60.00
2018-01-06T14:07:15.994Z,59.70
2018-01-06T14:09:43.174Z,59.60
2018-01-06T14:12:11.108Z,59.00
2018-01-06T14:14:38.287Z,58.90
2018-01-06T14:17:05.453Z,59.20
2018-01-06T14:19:33.410Z,57.20
2018-01-06T14:22:01.351Z,58.50
2018-01-06T14:24:29.281Z,59.20
2018-01-06T14:26:56.455Z,59.80
2018-01-06T14:29:23.630Z,59.70
2018-01-06T14:31:50.854Z,60.30
2018-01-06T14:34:18.000Z,59.60
2018-01-06T14:36:45.185Z,59.80
2018-01-06T14:39:12.362Z,60.00
2018-01-06T14:41:40.297Z,60.40
2018-01-06T14:44:08.282Z,60.70
2018-01-06T14:46:36.245Z,60.70
2018-01-06T14:49:04.340Z,60.90
2018-01-06T14:51:31.510Z,60.30
2018-01-06T14:53:59.455Z,61.00
2018-01-06T14:56:26.640Z,61.00
2018-01-06T14:58:53.808Z,61.40
2018-01-06T15:01:21.767Z,61.70
2018-01-06T15:03:49.001Z,61.50
2018-01-06T15:06:16.234Z,61.40
2018-01-06T15:08:43.418Z,60.20
2018-01-06T15:11:10.622Z,59.20
2018-01-06T15:13:38.705Z,59.20
2018-01-06T15:16:05.913Z,59.00
2018-01-06T15:18:33.982Z,59.00
2018-01-06T15:21:01.188Z,59.60
2018-01-06T15:23:28.406Z,59.70
2018-01-06T15:25:55.820Z,59.40
2018-01-06T15:28:23.753Z,60.10
2018-01-06T15:30:51.710Z,60.10
2018-01-06T15:33:18.921Z,60.70
2018-01-06T15:35:46.133Z,60.80
2018-01-06T15:38:13.345Z,60.90
2018-01-06T15:40:40.542Z,61.60
2018-01-06T15:43:08.274Z,60.70
2018-01-06T15:45:35.484Z,60.80
2018-01-06T15:48:03.466Z,61.20
2018-01-06T15:50:30.643Z,61.20
2018-01-06T15:52:57.914Z,61.50
2018-01-06T15:55:25.078Z,61.90
2018-01-06T15:57:52.250Z,61.70
2018-01-06T16:00:20.228Z,61.70
2018-01-06T16:02:48.941Z,61.70
2018-01-06T16:05:17.011Z,61.70
2018-01-06T16:07:44.195Z,61.80
2018-01-06T16:10:11.408Z,61.60
2018-01-06T16:12:38.597Z,61.90
2018-01-06T16:15:06.580Z,58.40
2018-01-06T16:17:33.748Z,58.40
2018-01-06T16:20:00.958Z,60.40
2018-01-06T16:22:31.734Z,60.10
2018-01-06T16:24:58.938Z,61.20
2018-01-06T16:27:27.013Z,61.30
2018-01-06T16:29:55.229Z,61.40
2018-01-06T16:32:22.400Z,61.50
2018-01-06T16:34:51.117Z,61.40
2018-01-06T16:37:18.294Z,61.40
2018-01-06T16:39:45.465Z,61.50
2018-01-06T16:42:12.672Z,61.40
2018-01-06T16:44:39.842Z,61.30
2018-01-06T16:47:07.046Z,61.10
2018-01-06T16:49:34.989Z,60.90
2018-01-06T16:52:03.001Z,60.90
2018-01-06T16:54:30.933Z,60.80
2018-01-06T16:56:58.097Z,60.80
2018-01-06T16:59:25.403Z,60.80
2018-01-06T17:01:52.573Z,61.60
2018-01-06T17:04:20.239Z,60.70
2018-01-06T17:06:47.716Z,60.80
2018-01-06T17:09:15.537Z,60.80
2018-01-06T17:11:42.703Z,60.80
2018-01-06T17:14:09.893Z,60.80
2018-01-06T17:16:37.062Z,60.60
2018-01-06T17:19:04.998Z,59.20
2018-01-06T17:21:32.221Z,59.10
2018-01-06T17:23:59.397Z,59.50
2018-01-06T17:26:26.574Z,60.40
2018-01-06T17:28:53.756Z,60.70
2018-01-06T17:31:20.986Z,60.70
2018-01-06T17:33:48.923Z,60.50
2018-01-06T17:36:16.209Z,60.50
2018-01-06T17:38:44.154Z,60.60
2018-01-06T17:41:11.323Z,60.50
2018-01-06T17:43:38.785Z,60.50
2018-01-06T17:46:06.014Z,60.50
2018-01-06T17:48:33.196Z,60.60
2018-01-06T17:51:01.175Z,60.20
2018-01-06T17:53:29.109Z,60.20
2018-01-06T17:55:56.277Z,60.00
2018-01-06T17:58:23.450Z,59.80
2018-01-06T18:00:51.461Z,59.40
2018-01-06T18:03:18.655Z,59.40
2018-01-06T18:05:45.865Z,59.60
2018-01-06T18:08:13.035Z,60.00
2018-01-06T18:10:40.201Z,59.70
2018-01-06T18:13:10.803Z,59.80
2018-01-06T18:15:37.976Z,59.60
2018-01-06T18:18:05.149Z,60.00
2018-01-06T18:20:33.129Z,60.40
2018-01-06T18:23:01.069Z,60.30
2018-01-06T18:25:29.057Z,60.30
2018-01-06T18:27:57.934Z,60.90
2018-01-06T18:30:25.109Z,60.20
2018-01-06T18:32:53.049Z,55.70
2018-01-06T18:35:21.058Z,56.10
2018-01-06T18:37:48.998Z,56.50
2018-01-06T18:40:16.166Z,56.50
2018-01-06T18:42:44.126Z,57.30
2018-01-06T18:45:11.307Z,57.30
2018-01-06T18:47:38.497Z,57.80
2018-01-06T18:50:05.673Z,58.40
2018-01-06T18:52:32.898Z,57.70
2018-01-06T18:55:00.066Z,56.40
2018-01-06T18:57:27.234Z,57.90
2018-01-06T18:59:54.412Z,58.50
2018-01-06T19:02:22.345Z,58.40
2018-01-06T19:04:50.353Z,58.40
2018-01-06T19:07:19.180Z,58.30
2018-01-06T19:09:47.281Z,58.30
2018-01-06T19:12:14.458Z,58.70
2018-01-06T19:14:42.433Z,58.60
2018-01-06T19:17:10.366Z,58.60
2018-01-06T19:19:38.482Z,58.50
2018-01-06T19:22:07.374Z,58.30
2018-01-06T19:24:35.330Z,58.30
2018-01-06T19:27:03.269Z,58.70
2018-01-06T19:29:30.438Z,58.70
2018-01-06T19:31:57.607Z,58.90
2018-01-06T19:34:25.542Z,58.90
2018-01-06T19:36:52.705Z,58.90
2018-01-06T19:39:19.910Z,59.20
2018-01-06T19:41:47.149Z,59.30
2018-01-06T19:44:14.356Z,59.20
2018-01-06T19:46:41.565Z,59.30
2018-01-06T19:49:09.673Z,59.20
2018-01-06T19:51:38.505Z,59.80
2018-01-06T19:54:07.433Z,59.70
2018-01-06T19:56:34.605Z,59.70
2018-01-06T19:59:01.773Z,59.90
2018-01-06T20:01:28.945Z,59.50
2018-01-06T20:03:56.888Z,59.50
2018-01-06T20:06:24.856Z,59.70
2018-01-06T20:08:52.082Z,59.70
2018-01-06T20:11:19.285Z,59.90
2018-01-06T20:13:47.253Z,59.90
2018-01-06T20:16:15.490Z,59.90
2018-01-06T20:18:42.659Z,59.90
2018-01-06T20:21:09.874Z,59.80
2018-01-06T20:23:37.046Z,59.70
2018-01-06T20:26:05.026Z,59.50
2018-01-06T20:28:32.202Z,59.90
2018-01-06T20:31:00.346Z,60.70
2018-01-06T20:33:27.530Z,60.10
2018-01-06T20:35:54.749Z,59.90
2018-01-06T20:38:22.039Z,60.10
2018-01-06T20:40:49.290Z,61.30
2018-01-06T20:43:16.466Z,60.80
2018-01-06T20:45:43.637Z,60.50
2018-01-06T20:48:10.873Z,60.30
2018-01-06T20:50:38.106Z,60.10
2018-01-06T20:53:05.345Z,60.00
2018-01-06T20:55:32.515Z,59.90
2018-01-06T20:58:00.452Z,59.80
2018-01-06T21:00:27.621Z,59.80
2018-01-06T21:02:54.793Z,59.70
2018-01-06T21:05:22.749Z,59.50
2018-01-06T21:07:50.694Z,59.60
2018-01-06T21:10:17.861Z,59.50
2018-01-06T21:12:45.133Z,59.60
2018-01-06T21:15:13.993Z,59.20
2018-01-06T21:17:42.077Z,59.10
2018-01-06T21:20:09.254Z,59.20
2018-01-06T21:22:38.105Z,59.30
2018-01-06T21:25:06.222Z,59.30
2018-01-06T21:27:35.185Z,59.30
2018-01-06T21:30:02.366Z,59.30
2018-01-06T21:32:30.302Z,59.20
2018-01-06T21:34:58.457Z,59.10
2018-01-06T21:37:26.544Z,59.90
2018-01-06T21:39:54.631Z,59.90
2018-01-06T21:42:21.797Z,59.70
2018-01-06T21:44:49.776Z,59.40
2018-01-06T21:47:17.757Z,59.40
2018-01-06T21:49:44.932Z,59.30
2018-01-06T21:52:12.102Z,59.30
2018-01-06T21:54:39.276Z,59.20
2018-01-06T21:57:06.451Z,59.30
2018-01-06T21:59:34.388Z,59.10
2018-01-06T22:02:01.573Z,59.10
2018-01-06T22:04:29.658Z,60.10
2018-01-06T22:06:56.825Z,60.10
2018-01-06T22:09:24.053Z,59.90
2018-01-06T22:11:52.021Z,59.50
2018-01-06T22:14:19.993Z,59.50
2018-01-06T22:16:47.965Z,59.40
2018-01-06T22:19:15.138Z,59.40
2018-01-06T22:21:42.340Z,59.30
2018-01-06T22:24:09.509Z,59.30
2018-01-06T22:26:37.500Z,59.30
2018-01-06T22:29:04.681Z,59.30
2018-01-06T22:31:35.238Z,59.20
2018-01-06T22:34:03.221Z,59.60
2018-01-06T22:36:30.385Z,59.60
2018-01-06T22:38:58.385Z,59.00
2018-01-06T22:41:25.637Z,58.80
2018-01-06T22:43:52.833Z,58.70
2018-01-06T22:46:19.998Z,58.70
2018-01-06T22:48:47.209Z,58.70
2018-01-06T22:51:14.393Z,58.10
2018-01-06T22:53:41.657Z,58.80
2018-01-06T22:56:09.630Z,58.70
2018-01-06T22:58:38.393Z,58.70
2018-01-06T23:01:06.482Z,58.60
2018-01-06T23:03:33.650Z,59.00
2018-01-06T23:06:01.622Z,59.40
2018-01-06T23:08:29.594Z,59.10
2018-01-06T23:10:57.529Z,59.10
2018-01-06T23:13:24.734Z,59.00
2018-01-06T23:15:52.842Z,59.00
2018-01-06T23:18:20.047Z,59.00
2018-01-06T23:20:48.029Z,58.90
2018-01-06T23:23:15.243Z,58.80
2018-01-06T23:25:42.413Z,59.00
2018-01-06T23:28:11.206Z,58.90
2018-01-06T23:30:39.156Z,59.70
2018-01-06T23:33:06.422Z,59.70
2018-01-06T23:35:33.581Z,59.50
2018-01-06T23:38:02.290Z,59.20
2018-01-06T23:40:29.501Z,59.10
2018-01-06T23:42:56.679Z,59.00
2018-01-06T23:45:24.651Z,59.10
2018-01-06T23:47:51.820Z,59.10
2018-01-06T23:50:19.020Z,59.00
2018-01-06T23:52:46.193Z,58.90
2018-01-06T23:55:14.185Z,58.70
2018-01-06T23:57:41.355Z,58.70
